createdAt,value
2023-04-19T00:02:16.951Z,102144.84
2023-04-19T00:07:21.446Z,102140.28
2023-04-19T00:12:23.924Z,102151.88
2023-04-19T00:17:27.558Z,102159.66
2023-04-19T00:22:31.103Z,102117.63
2023-04-19T00:27:33.527Z,102104.44
2023-04-19T00:32:36.511Z,102125.88
2023-04-19T00:37:38.881Z,102113.53
2023-04-19T00:42:42.358Z,102122.41
2023-04-19T00:47:47.650Z,102117.47
2023-04-19T00:52:52.279Z,102116.72
2023-04-19T00:57:54.892Z,102111.28
2023-04-19T01:02:57.468Z,102104.50
2023-04-19T01:08:02.087Z,102115.72
2023-04-19T01:13:04.472Z,102095.56
2023-04-19T01:18:07.588Z,102070.16
2023-04-19T01:23:12.263Z,102109.38
2023-04-19T01:28:14.704Z,102088.56
2023-04-19T01:33:18.287Z,102088.88
2023-04-19T01:38:21.145Z,102087.88
2023-04-19T01:43:24.035Z,102107.22
2023-04-19T01:48:27.550Z,102092.06
2023-04-19T01:53:30.531Z,102108.09
2023-04-19T01:58:33.435Z,102109.28
2023-04-19T02:03:36.225Z,102093.78
2023-04-19T02:08:40.105Z,102112.94
2023-04-19T02:13:43.425Z,102095.97
2023-04-19T02:18:47.048Z,102112.28
2023-04-19T02:23:49.506Z,102113.63
2023-04-19T02:28:53.128Z,102118.41
2023-04-19T02:33:56.046Z,102096.31
2023-04-19T02:39:00.114Z,102085.06
2023-04-19T02:44:02.911Z,102099.94
2023-04-19T02:49:07.280Z,102044.66
2023-04-19T02:54:10.059Z,102112.78
2023-04-19T02:59:13.900Z,102112.75
2023-04-19T03:04:17.506Z,102103.84
2023-04-19T03:09:20.773Z,102098.22
2023-04-19T03:14:24.295Z,102111.44
2023-04-19T03:19:29.212Z,102089.13
2023-04-19T03:24:32.012Z,102090.09
2023-04-19T03:29:48.796Z,102092.81
2023-04-19T03:34:51.868Z,102092.97
2023-04-19T03:39:54.330Z,102089.59
2023-04-19T03:45:06.209Z,102096.53
2023-04-19T03:50:13.784Z,102082.06
2023-04-19T03:55:19.839Z,102070.41
2023-04-19T04:00:23.146Z,102077.06
2023-04-19T04:05:31.597Z,102061.09
2023-04-19T04:10:36.038Z,102076.53
2023-04-19T04:15:39.724Z,102064.03
2023-04-19T04:20:46.047Z,102072.03
2023-04-19T04:25:58.265Z,102066.13
2023-04-19T04:31:03.661Z,102066.69
2023-04-19T04:36:12.762Z,102065.66
2023-04-19T04:41:17.190Z,102060.44
2023-04-19T04:46:20.301Z,102053.03
2023-04-19T04:51:22.918Z,102063.69
2023-04-19T04:56:29.536Z,102041.44
2023-04-19T05:01:32.728Z,102029.94
2023-04-19T05:06:37.904Z,102043.91
2023-04-19T05:11:41.572Z,102046.00
2023-04-19T05:16:44.983Z,102045.63
2023-04-19T05:21:48.728Z,102029.16
2023-04-19T05:26:53.258Z,102047.56
2023-04-19T05:31:58.329Z,102012.44
2023-04-19T05:37:25.976Z,102038.00
2023-04-19T05:42:32.955Z,102039.38
2023-04-19T05:47:37.984Z,102028.59
2023-04-19T05:52:58.980Z,102005.53
2023-04-19T05:58:01.531Z,101990.19
2023-04-19T06:03:05.845Z,102016.91
2023-04-19T06:08:16.696Z,102004.22
2023-04-19T06:13:20.191Z,102013.66
2023-04-19T06:18:22.908Z,101996.03
2023-04-19T06:23:27.181Z,102014.69
2023-04-19T06:28:30.891Z,102005.63
2023-04-19T06:33:33.275Z,102014.81
2023-04-19T06:38:36.557Z,101983.22
2023-04-19T06:43:42.944Z,101961.00
2023-04-19T06:48:45.358Z,101970.50
2023-04-19T06:53:47.797Z,101991.63
2023-04-19T06:58:50.212Z,101979.72
2023-04-19T07:03:53.948Z,101961.69
2023-04-19T07:08:58.320Z,101978.00
2023-04-19T07:14:01.361Z,101979.38
2023-04-19T07:19:03.953Z,101945.66
2023-04-19T07:24:09.063Z,101936.94
2023-04-19T07:29:13.979Z,101968.88
2023-04-19T07:34:17.146Z,101940.94
2023-04-19T07:39:20.282Z,101953.91
2023-04-19T07:44:22.648Z,101958.03
2023-04-19T07:49:26.132Z,101949.84
2023-04-19T07:54:30.626Z,101956.75
2023-04-19T07:59:33.713Z,101936.56
2023-04-19T08:04:37.557Z,101967.22
2023-04-19T08:09:40.731Z,101943.91
2023-04-19T08:14:56.045Z,101954.69
2023-04-19T08:20:03.948Z,101930.31
2023-04-19T08:25:08.229Z,101913.44
2023-04-19T08:30:11.547Z,101952.56
2023-04-19T08:35:15.322Z,101923.09
2023-04-19T08:40:18.744Z,101933.25
2023-04-19T08:45:31.144Z,101934.53
2023-04-19T08:50:48.433Z,101912.06
2023-04-19T09:01:06.287Z,101891.44
2023-04-19T09:06:09.029Z,101903.09
2023-04-19T09:11:11.683Z,101915.56
2023-04-19T09:16:37.779Z,101897.25
2023-04-19T09:21:40.683Z,101882.22
2023-04-19T09:26:55.941Z,101907.06
2023-04-19T09:32:00.508Z,101881.28
2023-04-19T09:37:24.879Z,101885.69
2023-04-19T09:48:08.101Z,101872.03
2023-04-19T09:53:11.216Z,101851.97
2023-04-19T09:58:14.847Z,101830.09
2023-04-19T10:03:22.374Z,101873.44
2023-04-19T10:08:29.044Z,101849.25
2023-04-19T10:13:33.219Z,101852.53
2023-04-19T10:18:36.638Z,101859.16
2023-04-19T10:23:40.057Z,101844.13
2023-04-19T10:28:42.866Z,101862.31
2023-04-19T10:33:45.311Z,101826.63
2023-04-19T10:38:53.118Z,101859.44
2023-04-19T10:43:55.427Z,101847.00
2023-04-19T10:49:00.036Z,101845.69
2023-04-19T10:54:07.574Z,101821.75
2023-04-19T10:59:22.170Z,101829.38
2023-04-19T11:04:30.899Z,101841.34
2023-04-19T11:09:35.764Z,101834.81
2023-04-19T11:14:54.191Z,101839.38
2023-04-19T11:20:07.785Z,101844.13
2023-04-19T11:25:31.805Z,101826.44
2023-04-19T11:30:35.072Z,101825.97
2023-04-19T11:35:38.001Z,101825.00
2023-04-19T11:40:41.384Z,101815.06
2023-04-19T11:45:44.182Z,101830.53
2023-04-19T11:50:49.740Z,101821.44
2023-04-19T11:55:59.404Z,101812.97
2023-04-19T12:01:29.721Z,101824.66
2023-04-19T12:06:32.759Z,101830.69
2023-04-19T12:11:47.374Z,101824.44
2023-04-19T12:17:11.978Z,101815.94
2023-04-19T12:22:15.891Z,101806.50
2023-04-19T12:27:18.526Z,101792.56
2023-04-19T12:32:21.116Z,101790.28
2023-04-19T12:37:23.850Z,101792.47
2023-04-19T12:42:27.660Z,101782.38
2023-04-19T12:47:31.844Z,101795.91
2023-04-19T12:52:35.267Z,101780.50
2023-04-19T12:57:38.534Z,101765.03
2023-04-19T13:02:42.114Z,101758.34
2023-04-19T13:07:44.925Z,101764.38
2023-04-19T13:12:47.267Z,101717.59
2023-04-19T13:17:50.997Z,101755.81
2023-04-19T13:22:53.891Z,101757.06
2023-04-19T13:27:57.752Z,101725.91
2023-04-19T13:33:02.068Z,101757.47
2023-04-19T13:38:04.997Z,101764.31
2023-04-19T13:43:10.060Z,101754.38
2023-04-19T13:48:15.486Z,101716.28
2023-04-19T13:53:18.118Z,101764.38
2023-04-19T13:58:20.565Z,101770.41
2023-04-19T14:03:24.771Z,101752.03
2023-04-19T14:08:27.751Z,101741.31
2023-04-19T14:13:31.270Z,101754.13
2023-04-19T14:18:34.475Z,101753.44
2023-04-19T14:23:37.356Z,101746.19
2023-04-19T14:28:40.202Z,101749.13
2023-04-19T14:33:44.043Z,101739.75
2023-04-19T14:38:46.463Z,101745.53
2023-04-19T14:43:48.944Z,101746.38
2023-04-19T14:48:51.849Z,101741.91
2023-04-19T14:53:54.233Z,101721.47
2023-04-19T14:58:57.655Z,101724.03
2023-04-19T15:04:01.344Z,101722.69
2023-04-19T15:09:05.556Z,101722.72
2023-04-19T15:14:11.495Z,101713.78
2023-04-19T15:19:15.074Z,101696.66
2023-04-19T15:24:17.819Z,101699.25
2023-04-19T15:29:21.029Z,101709.03
2023-04-19T15:34:23.429Z,101693.00
2023-04-19T15:39:26.041Z,101700.59
2023-04-19T15:44:28.573Z,101702.34
2023-04-19T15:49:31.506Z,101700.00
2023-04-19T15:54:33.868Z,101698.75
2023-04-19T15:59:36.300Z,101700.75
2023-04-19T16:04:38.920Z,101685.34
2023-04-19T16:09:41.435Z,101684.53
2023-04-19T16:14:43.722Z,101693.84
2023-04-19T16:19:46.188Z,101702.34
2023-04-19T16:24:49.645Z,101695.81
2023-04-19T16:29:51.977Z,101701.38
2023-04-19T16:34:54.299Z,101716.38
2023-04-19T16:40:08.668Z,101720.63
2023-04-19T16:45:11.445Z,101726.88
2023-04-19T16:50:14.662Z,101731.03
2023-04-19T16:55:17.212Z,101727.13
2023-04-19T17:00:22.128Z,101740.75
2023-04-19T17:05:25.596Z,101698.25
2023-04-19T17:10:28.660Z,101730.53
2023-04-19T17:15:32.117Z,101740.41
2023-04-19T17:20:34.978Z,101731.81
2023-04-19T17:25:37.407Z,101732.09
2023-04-19T17:30:40.385Z,101716.38
2023-04-19T17:35:43.133Z,101728.34
2023-04-19T17:40:45.582Z,101723.53
2023-04-19T17:45:47.909Z,101703.31
2023-04-19T17:50:50.122Z,101751.31
2023-04-19T17:55:52.529Z,101739.53
2023-04-19T18:00:54.872Z,101747.81
2023-04-19T18:05:57.698Z,101732.56
2023-04-19T18:11:00.134Z,101744.50
2023-04-19T18:16:03.770Z,101738.22
2023-04-19T18:21:07.001Z,101735.41
2023-04-19T18:26:09.548Z,101743.41
2023-04-19T18:31:12.415Z,101727.69
2023-04-19T18:36:14.778Z,101731.88
2023-04-19T18:41:17.823Z,101749.03
2023-04-19T18:46:21.828Z,101752.31
2023-04-19T18:51:24.680Z,101740.63
2023-04-19T18:57:03.840Z,101737.53
2023-04-19T19:01:51.027Z,101754.94
2023-04-19T19:06:53.887Z,101731.03
2023-04-19T19:11:57.021Z,101766.00
2023-04-19T19:16:59.781Z,101761.72
2023-04-19T19:22:03.291Z,101775.22
2023-04-19T19:27:06.011Z,101769.13
2023-04-19T19:32:09.952Z,101756.44
2023-04-19T19:37:12.748Z,101763.34
2023-04-19T19:42:19.022Z,101758.84
2023-04-19T19:47:22.255Z,101748.09
2023-04-19T19:52:27.403Z,101748.91
2023-04-19T19:58:16.403Z,101753.22
2023-04-19T20:02:56.843Z,101747.97
2023-04-19T20:08:08.494Z,101763.13
2023-04-19T20:13:13.476Z,101764.16
2023-04-19T20:18:17.763Z,101758.28
2023-04-19T20:23:21.945Z,101758.94
2023-04-19T20:28:26.249Z,101748.69
2023-04-19T20:33:28.739Z,101756.66
2023-04-19T20:38:32.308Z,101735.31
2023-04-19T20:43:34.812Z,101700.94
2023-04-19T20:48:38.181Z,101724.72
2023-04-19T20:53:40.753Z,101725.63
2023-04-19T20:58:43.593Z,101690.59
2023-04-19T21:03:46.784Z,101717.00
2023-04-19T21:08:49.922Z,101681.47
2023-04-19T21:13:52.807Z,101711.47
2023-04-19T21:18:56.003Z,101702.03
2023-04-19T21:23:58.808Z,101691.41
2023-04-19T21:29:01.718Z,101674.88
2023-04-19T21:34:04.691Z,101691.16
2023-04-19T21:39:07.194Z,101671.56
2023-04-19T21:44:10.627Z,101694.47
2023-04-19T21:49:13.635Z,101657.06
2023-04-19T21:54:23.380Z,101653.44
2023-04-19T21:59:35.970Z,101679.56
2023-04-19T22:04:39.703Z,101670.38
2023-04-19T22:09:42.880Z,101648.91
2023-04-19T22:14:45.134Z,101655.63
2023-04-19T22:19:48.786Z,101633.56
2023-04-19T22:24:56.734Z,101626.16
2023-04-19T22:30:00.486Z,101621.28
2023-04-19T22:35:03.150Z,101620.50
2023-04-19T22:40:07.029Z,101629.09
2023-04-19T22:45:10.562Z,101620.28
2023-04-19T22:50:13.168Z,101611.94
2023-04-19T22:55:15.616Z,101623.38
2023-04-19T23:00:18.380Z,101624.63
2023-04-19T23:05:20.712Z,101589.47
2023-04-19T23:10:24.626Z,101591.16
2023-04-19T23:15:29.593Z,101598.72
2023-04-19T23:20:32.400Z,101611.19
2023-04-19T23:25:34.949Z,101577.50
2023-04-19T23:30:37.340Z,101593.22
2023-04-19T23:35:39.840Z,101602.81
2023-04-19T23:40:42.296Z,101599.13
2023-04-19T23:45:45.128Z,101591.34
2023-04-19T23:50:47.667Z,101573.97
2023-04-19T23:55:50.173Z,101549.88
